Forside
METAR-TAF:

METAR-TAF

Lufthavne :

Tan Son Nhat Lufthavn

Ho Chi Minh-byen, Vietnam

Breddekreds: 10-49N, længdekreds: 106-40E, højde: 19 m

Aktuelle vejr

Denne rapport blev lavet for 23 minutter siden, kl. 12:30 UTC
Vind 1 kt fra varierende retninger
Temperatur 26°C
Fugtighed 94%
Tryk 1009 hPa
Sigt 10 km eller mere
Nogle få skyer i en højde af 1700 ft
Spredte skyer i en højde af 5000 ft

METAR: VVTS 171230Z VRB01KT 9999 FEW017 SCT050 26/25 Q1009 NOSIG

Tid: 19:53 (12:53 UTC)

Vejrudsigter

Denne rapport blev lavet for 1 time og 53 minutter siden, kl. 11:00 UTC
Foreløbig gælder fra 17 på 12 UTC til 18 på 18 UTC
Vind 3 kt fra varierende retninger
Sigt 10 km eller mere
Spredte skyer i en højde af 1700 ft
Spredte skyer i en højde af 4000 ft
Midlertidig
fra 18 på 07 UTC til 18 på 11 UTC
Sigt: 3000 m
Spredte skyer i en højde af 1500 ft
Nogle få skyer i en højde af 1700 ft, Cumulonimbus.
tordenbyger, regn

TAF: VVTS 171100Z 1712/1818 VRB03KT 9999 SCT017 SCT040 TEMPO 1807/1811 3000 TSRA SCT015 FEW017CB

Vejrobservationer og prognoser fra mere end 4000 lufthavne (METAR og TAF).

De gule og røde prikker repræsenterer de meteorologiske stationer.

Flyt musen over at se navnet på stationen.

Så klik over at se vejr observationer og prognoser.

At skifte det kort: Klik på de grønne knapper med et sort kors for at zoome ind; på den grønne knap med en bindestreg for at zoome ud; eller på de grønne pile for tilstødende kort.


METAR-TAF: